»·PEaware :: WAT169 KLAS-KSNA

WAT169 :: KLAS-KSNA

FLIGHT INFORMATION

Flight Status: Arrived
Operator:
Walker Air Transport
More flights by this operator :: More flights under this callsign
Pilot: Marty P. (27464)
Aircraft: BOEING 737-800
(B738)
More flights by this aircraft type
Origin: KLAS McCarran Intl
United States
Destination: KSNA John Wayne-Orange Co
United States
More flights between these airports :: More routes between these airports
Route: +BOACH8 WHIGG FEYLA DSNEE4
File this flight plan on PilotEdge
Remarks:
Altitude:
(Current/Filed)
28,000ft
Speed:
(Current/Filed)
480kts
Departed: 14-Oct-20 08:02 PM
Arrived: 14-Oct-20 09:18 PM
Distance/Time
Traveled:
197nm/1:15
Distance/Time
To Go:
Arrived

Flight Plot

Page will automatically refresh every two minutes.

Flight plan parsing failed; only flown route is shown


Map Options




Map Legend


Flown Route
Filed Route
Departure Airport
Arrival Airport
Navaid (VOR, NDB)
Fix

Horizontal Profiles

Position Reports

Time Latitude Longitude Heading Altitude Ground
Speed
14-Oct-20 19:32 36.080317 -115.147297 66 2099ft 0kts
14-Oct-20 19:33 36.080317 -115.147297 66 2099ft 0kts
14-Oct-20 19:34 36.080317 -115.147297 66 2099ft 0kts
14-Oct-20 19:35 36.080317 -115.147297 66 2099ft 0kts
14-Oct-20 19:36 36.080317 -115.147297 66 2099ft 0kts
14-Oct-20 19:37 36.080317 -115.147297 66 2099ft 0kts
14-Oct-20 19:38 36.080317 -115.147297 66 2099ft 0kts
14-Oct-20 19:39 36.080317 -115.147297 66 2099ft 0kts
14-Oct-20 19:40 36.080317 -115.147297 66 2099ft 0kts
14-Oct-20 19:41 36.080317 -115.147297 66 2099ft 0kts
14-Oct-20 19:42 36.080317 -115.147297 66 2099ft 0kts
14-Oct-20 19:43 36.080317 -115.147297 66 2099ft 0kts
14-Oct-20 19:44 36.080317 -115.147298 66 2099ft 0kts
14-Oct-20 19:45 36.080186 -115.147727 91 2101ft 2kts
14-Oct-20 19:46 36.080441 -115.148161 156 2102ft 0kts
14-Oct-20 19:47 36.080441 -115.148161 156 2102ft 0kts
14-Oct-20 19:48 36.080441 -115.148161 156 2102ft 0kts
14-Oct-20 19:49 36.080441 -115.148161 156 2102ft 0kts
14-Oct-20 19:50 36.080441 -115.148161 156 2102ft 0kts
14-Oct-20 19:51 36.078767 -115.147186 145 2101ft 10kts
14-Oct-20 19:52 36.078259 -115.142992 90 2089ft 16kts
14-Oct-20 19:53 36.078267 -115.137212 90 2073ft 13kts
14-Oct-20 19:54 36.078268 -115.132684 89 2058ft 14kts
14-Oct-20 19:55 36.078286 -115.126292 88 2044ft 20kts
14-Oct-20 19:56 36.077855 -115.122071 129 2039ft 8kts
14-Oct-20 19:57 36.077458 -115.121501 139 2039ft 0kts
14-Oct-20 19:58 36.077458 -115.121501 139 2039ft 0kts
14-Oct-20 19:59 36.077458 -115.121501 139 2039ft 0kts
14-Oct-20 20:00 36.076484 -115.121543 258 2040ft 4kts
14-Oct-20 20:01 36.076410 -115.144377 270 2097ft 168kts
14-Oct-20 20:02 36.076834 -115.209502 266 3735ft 227kts
14-Oct-20 20:03 36.035438 -115.272302 201 7258ft 267kts
14-Oct-20 20:04 35.962349 -115.301998 190 10931ft 290kts
14-Oct-20 20:05 35.880839 -115.312367 185 14330ft 303kts
14-Oct-20 20:06 35.785124 -115.307021 174 15501ft 385kts
14-Oct-20 20:07 35.676929 -115.318563 207 18048ft 406kts
14-Oct-20 20:08 35.592603 -115.411023 228 20594ft 415kts
14-Oct-20 20:09 35.513486 -115.516672 228 22842ft 426kts
14-Oct-20 20:10 35.433035 -115.624860 228 25028ft 432kts
14-Oct-20 20:11 35.354060 -115.731143 227 27850ft 414kts
14-Oct-20 20:12 35.272368 -115.840880 227 28054ft 461kts
14-Oct-20 20:13 35.180799 -115.960655 225 28060ft 502kts
14-Oct-20 20:14 35.081222 -116.085465 225 28093ft 526kts
14-Oct-20 20:15 34.977948 -116.215515 225 28119ft 538kts
14-Oct-20 20:16 34.874228 -116.345444 225 28112ft 513kts
14-Oct-20 20:17 34.781901 -116.462491 226 26561ft 455kts
14-Oct-20 20:18 34.698517 -116.567137 222 25242ft 430kts
14-Oct-20 20:19 34.603691 -116.662265 218 25236ft 436kts
14-Oct-20 20:25 36.080317 -115.147297 66 2099ft 0kts
14-Oct-20 20:26 36.080317 -115.147297 66 2099ft 0kts
14-Oct-20 20:27 36.080317 -115.147297 66 2099ft 0kts
14-Oct-20 20:28 36.080317 -115.147297 66 2099ft 0kts
14-Oct-20 20:29 36.080317 -115.147297 66 2099ft 0kts
14-Oct-20 20:30 36.080317 -115.147297 66 2099ft 0kts
14-Oct-20 20:31 36.080296 -115.147476 71 2100ft 1kts
14-Oct-20 20:32 36.080407 -115.148105 151 2102ft 1kts
14-Oct-20 20:33 36.080482 -115.148146 156 2102ft 0kts
14-Oct-20 20:34 36.079842 -115.147813 153 2102ft 6kts
14-Oct-20 20:35 36.078291 -115.143782 93 2092ft 24kts
14-Oct-20 20:36 36.078269 -115.134272 90 2063ft 27kts
14-Oct-20 20:37 36.078277 -115.125703 89 2043ft 24kts
14-Oct-20 20:38 36.077556 -115.121623 129 2039ft 0kts
14-Oct-20 20:39 36.076427 -115.125396 270 2045ft 75kts
14-Oct-20 20:40 36.077195 -115.177396 268 3116ft 191kts
14-Oct-20 20:40 36.070459 -115.238618 241 4903ft 247kts
14-Oct-20 20:41 36.006169 -115.285938 201 7009ft 343kts
14-Oct-20 20:42 35.904995 -115.309613 186 10098ft 390kts
14-Oct-20 20:43 35.799244 -115.308702 174 14151ft 387kts
14-Oct-20 20:44 35.690815 -115.311051 200 17128ft 400kts
14-Oct-20 20:45 35.603523 -115.396147 228 19303ft 423kts
14-Oct-20 20:46 35.520167 -115.507628 228 21794ft 429kts
14-Oct-20 20:47 35.440483 -115.614783 228 24289ft 429kts
14-Oct-20 20:48 35.360786 -115.722099 228 26062ft 442kts
14-Oct-20 20:49 35.273457 -115.839453 227 26054ft 491kts
14-Oct-20 20:50 35.176754 -115.965767 226 26060ft 525kts
14-Oct-20 20:51 35.073099 -116.095698 225 26095ft 541kts
14-Oct-20 20:52 34.968529 -116.226955 225 26115ft 522kts
14-Oct-20 20:53 34.872292 -116.347537 226 26117ft 494kts
14-Oct-20 20:54 34.779505 -116.465440 226 25350ft 450kts
14-Oct-20 20:55 34.697674 -116.568280 222 25003ft 412kts
14-Oct-20 20:56 34.608449 -116.657782 218 22540ft 413kts
14-Oct-20 20:57 34.519824 -116.744501 218 20137ft 400kts
14-Oct-20 20:58 34.440647 -116.833468 223 18304ft 380kts
14-Oct-20 20:59 34.365332 -116.920848 223 16603ft 371kts
14-Oct-20 21:00 34.291397 -117.006079 223 14713ft 364kts
14-Oct-20 21:01 34.209819 -117.075021 210 12709ft 355kts
14-Oct-20 21:02 34.123153 -117.128560 203 11969ft 351kts
14-Oct-20 21:03 34.034512 -117.175878 203 11974ft 348kts
14-Oct-20 21:04 33.960075 -117.247319 228 10522ft 335kts
14-Oct-20 21:05 33.905105 -117.324551 228 9367ft 277kts
14-Oct-20 21:06 33.860582 -117.388720 239 8237ft 229kts
14-Oct-20 21:07 33.840226 -117.460009 251 6159ft 220kts
14-Oct-20 21:08 33.826429 -117.523596 256 5971ft 186kts
14-Oct-20 21:09 33.835736 -117.586939 291 5945ft 205kts
14-Oct-20 21:10 33.857355 -117.651261 291 4931ft 202kts
14-Oct-20 21:11 33.875828 -117.712958 264 3579ft 208kts
14-Oct-20 21:12 33.841818 -117.763090 211 2949ft 194kts
14-Oct-20 21:13 33.794223 -117.793572 208 2580ft 194kts
14-Oct-20 21:14 33.750289 -117.821497 207 1601ft 153kts
14-Oct-20 21:15 33.713265 -117.845003 207 793ft 150kts
14-Oct-20 21:16 33.676740 -117.868255 207 67ft 126kts
14-Oct-20 21:17 33.669219 -117.871680 123 66ft 0kts
14-Oct-20 21:18 33.671111 -117.868880 38 66ft 23kts
14-Oct-20 21:19 33.675168 -117.865439 124 66ft 5kts
14-Oct-20 21:20 33.675016 -117.865098 117 66ft 0kts
14-Oct-20 21:21 33.675016 -117.865098 117 66ft 0kts
14-Oct-20 21:22 33.675016 -117.865098 117 66ft 0kts
14-Oct-20 21:23 33.675016 -117.865098 117 66ft 0kts
14-Oct-20 21:24 33.675016 -117.865098 117 66ft 0kts

Navigation Log

Ident Type
Flight plan parsing failed, navigation log unavailable